Hyalite Weather Station

This weather station provides temperature, wind speed, gust or max wind speed, and wind direction at 9982ft near the summit of Flanders Mountain. This data can be used with temperature and precipitation data from the Shower Falls SNOTEL site. If the data has not been updated recently you can view it directly on datagarrison.com

Elevation
9982ft
Jump to table bottom
Date Time Temperature
deg F
RH, % Wind Speed Wind Gust Wind Direction
02/22/24 07:00 14.9 84 12 21 W - 258
02/22/24 06:00 15.1 84 12 20 W - 251
02/22/24 05:00 15.5 84 13 24 W - 258
02/22/24 04:00 15.8 84 9 21 SW - 247
02/22/24 03:00 16.1 84 6 13 SW - 247
02/22/24 02:00 16.3 84 7 13 W - 260
02/22/24 01:00 16.3 84 9 15 W - 264
02/22/24 00:00 16.4 83 10 17 W - 263
02/21/24 23:00 17.4 81 10 16 W - 261
02/21/24 22:00 17.5 81 10 15 W - 260
02/21/24 21:00 18.2 79 10 15 W - 263
02/21/24 20:00 18.4 79 9 14 W - 261
02/21/24 19:00 18.3 79 9 14 W - 257
02/21/24 18:00 18.2 76 7 11 W - 267
02/21/24 17:00 20.6 71 9 17 W - 268
02/21/24 16:00 21.2 72 7 18 W - 279
02/21/24 15:00 22.6 73 7 13 NW - 299
02/21/24 14:00 22.2 68 7 13 SW - 247
02/21/24 13:00 21.5 70 6 15 W - 271
02/21/24 12:00 20.7 71 5 13 W - 281
02/21/24 11:00 20.8 70 5 13 W - 265
02/21/24 10:00 19.8 70 7 14 W - 265
02/21/24 09:00 18.0 73 12 17 W - 257
02/21/24 08:00 16.5 78 13 18 W - 248
02/21/24 07:00 16.2 77 14 20 SW - 230
02/21/24 06:00 16.3 78 13 19 SW - 226
02/21/24 05:00 16.7 78 10 17 SW - 239
02/21/24 04:00 16.8 77 11 17 SW - 246
02/21/24 03:00 17.4 74 12 18 W - 250
02/21/24 02:00 18.5 68 16 24 W - 248
02/21/24 01:00 17.7 78 17 28 SW - 246
02/21/24 00:00 18.4 74 20 27 SW - 241
02/20/24 23:00 18.9 71 24 34 SW - 247
02/20/24 22:00 18.9 77 22 32 SW - 246
02/20/24 21:00 19.4 75 19 27 SW - 246
02/20/24 20:00 20.0 74 17 26 SW - 244
02/20/24 19:00 20.6 72 15 27 SW - 240
02/20/24 18:00 21.1 71 17 30 SW - 243
02/20/24 17:00 22.0 72 20 30 SW - 240
02/20/24 16:00 22.2 69 18 33 SW - 237
02/20/24 15:00 22.1 74 19 31 SW - 234
02/20/24 14:00 22.5 76 15 27 SW - 234
02/20/24 13:00 23.7 71 23 37 SW - 234
02/20/24 12:00 22.6 71 21 33 SW - 233
02/20/24 11:00 22.5 69 21 35 SW - 230
02/20/24 10:00 22.0 66 24 34 SW - 237
02/20/24 09:00 21.0 71 23 31 SW - 241
02/20/24 08:00 20.1 75 23 30 SW - 247
02/20/24 07:00 19.8 78 24 36 W - 251
02/20/24 06:00 20.0 75 23 36 W - 251